createdAt,value
2022-09-28T00:00:03.117Z,77
2022-09-28T00:20:02.715Z,78
2022-09-28T00:40:03.146Z,78
2022-09-28T01:00:02.510Z,79
2022-09-28T01:20:03.026Z,79
2022-09-28T01:40:02.583Z,79
2022-09-28T02:00:02.906Z,79
2022-09-28T02:20:02.555Z,79
2022-09-28T02:40:02.970Z,79
2022-09-28T03:00:02.213Z,80
2022-09-28T03:20:02.943Z,80
2022-09-28T03:40:02.434Z,81
2022-09-28T04:00:02.722Z,81
2022-09-28T04:20:02.186Z,81
2022-09-28T04:40:02.726Z,80
2022-09-28T05:00:03.029Z,80
2022-09-28T05:20:03.041Z,81
2022-09-28T05:40:02.355Z,82
2022-09-28T06:00:03.012Z,82
2022-09-28T06:20:02.361Z,82
2022-09-28T06:40:02.640Z,82
2022-09-28T07:00:02.915Z,81
2022-09-28T07:20:18.619Z,80
2022-09-28T07:40:02.432Z,78
2022-09-28T08:00:03.034Z,75
2022-09-28T08:20:02.413Z,71
2022-09-28T08:40:02.807Z,67
2022-09-28T09:00:03.099Z,66
2022-09-28T09:20:02.587Z,67
2022-09-28T09:40:02.898Z,68
2022-09-28T10:00:03.321Z,67
2022-09-28T10:20:02.912Z,64
2022-09-28T10:40:02.469Z,64
2022-09-28T11:00:02.948Z,64
2022-09-28T11:20:02.353Z,64
2022-09-28T11:40:02.743Z,64
2022-09-28T12:00:03.359Z,66
2022-09-28T12:20:03.288Z,68
2022-09-28T12:40:03.437Z,68
2022-09-28T13:00:02.918Z,67
2022-09-28T13:20:02.290Z,66
2022-09-28T13:40:02.761Z,66
2022-09-28T14:00:03.277Z,66
2022-09-28T14:20:02.598Z,67
2022-09-28T14:40:02.968Z,67
2022-09-28T15:00:02.433Z,67
2022-09-28T15:20:02.799Z,67
2022-09-28T15:40:03.264Z,67
2022-09-28T16:00:02.872Z,68
2022-09-28T16:20:02.722Z,69
2022-09-28T16:40:03.106Z,69
2022-09-28T17:00:02.583Z,70
2022-09-28T17:20:02.494Z,70
2022-09-28T17:40:02.962Z,71
2022-09-28T18:00:02.465Z,71
2022-09-28T18:20:02.951Z,72
2022-09-28T18:40:02.425Z,73
2022-09-28T19:00:02.987Z,74
2022-09-28T19:20:02.912Z,74
2022-09-28T19:40:02.280Z,75
2022-09-28T20:00:04.166Z,75
2022-09-28T20:20:02.675Z,75
2022-09-28T20:40:02.949Z,75
2022-09-28T21:00:02.973Z,76
2022-09-28T21:20:02.397Z,76
2022-09-28T21:40:02.945Z,77
2022-09-28T22:00:02.479Z,77
2022-09-28T22:20:03.070Z,77
2022-09-28T22:40:02.517Z,78
2022-09-28T23:00:02.777Z,78
2022-09-28T23:20:02.242Z,79
2022-09-28T23:40:02.500Z,79
